Arlington, WA

2:41 AM PDT on September 18, 2014 (GMT -0700)
Arlington Municipal | Change Station
CLOSE
Current Station
Airport
Location: Arlington,
Elevation: 138 ft
Nearby Weather Stations
4.0 Earthquake: Seabeck, Washington (23 hours ago)  

Elev 138 ft 48.16 °N, 122.16 °W | Updated 6 minutes ago

Rain
Rain
61 °F
Feels Like 61 °F
N
0
Wind Variable Wind from North

Today
High -- | Low -- °F
--% Chance of Precip.
Yesterday
High -- | Low -- °F
Precip. -- in
6:49 AM 7:13 PM
Waning Crescent, 28% visible
Pressure 29.75 in
Visibility 4.0 miles
Clouds Few 400 ft
Mostly Cloudy 3900 ft
Overcast 7000 ft
Dew Point 55 °F
Humidity 82%
Rainfall 0.00 in
Snow Depth 0 in , 0 in
UV 0 out of 12
Pollen 1.40 out of 12
PM2.5 Moderate
Flu Activity Not available.
METAR KAWO 180935Z AUTO 00000KT 4SM FEW004 BKN039 OVC070 16/13 A2975 RMK AO1

More Conditions Fewer Conditions

Pressure 29.75 in
Visibility 4.0 miles
Clouds Few 400 ft
Mostly Cloudy 3900 ft
Overcast 7000 ft
Dew Point 55 °F
Humidity 82%
Rainfall 0.00 in
Snow Depth 0 in , 0 in
UV 0 out of 12
Pollen 1.40 out of 12
PM2.5 Moderate
Flu Activity Not available.
METAR KAWO 180935Z AUTO 00000KT 4SM FEW004 BKN039 OVC070 16/13 A2975 RMK AO1

More Conditions Fewer Conditions

10-Day Weather Forecast

Almanac

Astronomy

Sep. 18, 2014 Rise Set
Actual Time 6:49 AM PDT 7:13 PM PDT
Civil Twilight 6:17 AM PDT 7:45 PM PDT
Nautical Twilight 5:40 AM PDT 8:21 PM PDT
Astronomical Twilight 5:02 AM PDT 9:00 PM PDT
Moon 1:27 AM PDT 4:24 PM PDT
Length of Visible Light 13h 27m
Length of Day
12h 24m
Tomorrow will be 3m 28s shorter.
Waning Crescent, 28% of the Moon is Illuminated
Today
Waning Crescent
Sep 24
New
Oct 1
First Quarter
Oct 8
Full
Oct 15
Last Quarter

Today's Extremes

State Highs State Lows

Community

WunderPhotos

Upload Photos

1,754,312 photos uploaded!

Nearby

Air Quality

  Air Quality AQ Index Pollutant
Yesterday Moderate
PM2.5
Yesterday Good
OZONE
Current Moderate
PM2.5
Thursday Good
OZONE
Thursday Good
PM2.5
Friday Good
OZONE
Friday Good
PM2.5
Saturday Good
PM2.5
Saturday Good
OZONE
Sunday Good
PM2.5
Sunday Good
OZONE
Monday Good
OZONE
Monday Good
PM2.5

Snow Depth

Station Depth Elevation
Grouse Camp 0 in 5380 ft
June Lake 0 in 3340 ft
Green Lake 0 in 6000 ft
Surprise Lakes 1 in 4250 ft
Harts Pass 0 in 6500 ft

Earthquake Activity

City Distance Mag. Time & Date
Seabeck, Washington 64 miles 4.0 3:06 AM PDT
2014-09-17
Morton, Washington 129 miles 3.0 5:43 AM PDT
2014-09-16
Minimum magnitude displayed is 2.5.

Coastal Water Temperatures

Place Temperature
Port Townsend, WA 52.0 °F
Seattle, WA 55.9 °F
Friday Harbor, WA 53.1 °F
Tacoma, WA 55.9 °F

Nearby Weather Stations